createdAt,value
2017-03-01T00:00:07.225Z,0
2017-03-01T00:01:06.854Z,0
2017-03-01T00:02:06.473Z,0
2017-03-01T00:03:06.748Z,0
2017-03-01T00:04:07.320Z,0
2017-03-01T00:05:07.362Z,0
2017-03-01T00:06:06.969Z,0
2017-03-01T00:07:07.407Z,0
2017-03-01T00:08:07.295Z,0
2017-03-01T00:09:06.268Z,0
2017-03-01T00:10:06.292Z,0
2017-03-01T00:11:07.106Z,0
2017-03-01T00:12:07.533Z,0
2017-03-01T00:13:06.616Z,0
2017-03-01T00:14:07.207Z,0
2017-03-01T00:15:07.221Z,0
2017-03-01T00:16:07.658Z,0
2017-03-01T00:17:07.667Z,0
2017-03-01T00:18:07.563Z,0
2017-03-01T00:19:06.939Z,0
2017-03-01T00:20:07.396Z,0
2017-03-01T00:21:07.013Z,0
2017-03-01T00:22:07.413Z,0
2017-03-01T00:23:07.682Z,0
2017-03-01T00:24:07.463Z,0
2017-03-01T00:25:07.888Z,0
2017-03-01T00:26:07.538Z,0
2017-03-01T00:27:07.562Z,0
2017-03-01T00:28:07.821Z,0
2017-03-01T00:29:08.001Z,0
2017-03-01T00:30:08.024Z,0
2017-03-01T00:31:07.264Z,0
2017-03-01T00:32:07.670Z,0
2017-03-01T00:33:07.949Z,0
2017-03-01T00:34:07.731Z,0
2017-03-01T00:35:07.760Z,0
2017-03-01T00:36:07.004Z,0
2017-03-01T00:37:07.077Z,0
2017-03-01T00:38:07.713Z,0
2017-03-01T00:39:07.865Z,0
2017-03-01T00:40:07.886Z,0
2017-03-01T00:41:08.323Z,0
2017-03-01T00:42:07.549Z,0
2017-03-01T00:43:07.817Z,0
2017-03-01T00:44:07.199Z,0
2017-03-01T00:45:07.655Z,0
2017-03-01T00:46:08.054Z,0
2017-03-01T00:47:07.293Z,0
2017-03-01T00:48:07.560Z,0
2017-03-01T00:49:08.140Z,0
2017-03-01T00:50:07.779Z,0
2017-03-01T00:51:08.584Z,0
2017-03-01T00:52:08.613Z,0
2017-03-01T00:53:08.489Z,0
2017-03-01T00:54:07.853Z,0
2017-03-01T00:55:08.687Z,0
2017-03-01T00:56:08.326Z,0
2017-03-01T00:57:07.552Z,0
2017-03-01T00:58:08.225Z,0
2017-03-01T00:59:08.809Z,0
2017-03-01T01:00:08.442Z,0
2017-03-01T01:01:08.847Z,0
2017-03-01T01:02:08.119Z,0
2017-03-01T01:03:08.388Z,0
2017-03-01T01:04:08.933Z,0
2017-03-01T01:05:08.161Z,0
2017-03-01T01:06:08.195Z,0
2017-03-01T01:07:08.607Z,0
2017-03-01T01:08:08.496Z,0
2017-03-01T01:09:08.293Z,0
2017-03-01T01:10:08.700Z,0
2017-03-01T01:11:08.730Z,0
2017-03-01T01:12:08.755Z,0
2017-03-01T01:13:08.628Z,0
2017-03-01T01:14:09.188Z,0
2017-03-01T01:15:08.829Z,0
2017-03-01T01:16:08.850Z,0
2017-03-01T01:17:08.878Z,0
2017-03-01T01:18:09.151Z,0
2017-03-01T01:19:08.927Z,0
2017-03-01T01:20:08.946Z,0
2017-03-01T01:21:08.581Z,0
2017-03-01T01:22:09.007Z,0
2017-03-01T01:23:08.898Z,0
2017-03-01T01:24:08.285Z,0
2017-03-01T01:25:09.487Z,0
2017-03-01T01:26:08.737Z,0
2017-03-01T01:27:09.147Z,0
2017-03-01T01:28:09.423Z,0
2017-03-01T01:29:09.195Z,0
2017-03-01T01:30:08.856Z,0
2017-03-01T01:31:08.453Z,0
2017-03-01T01:32:09.273Z,0
2017-03-01T01:33:09.970Z,0
2017-03-01T01:34:09.339Z,0
2017-03-01T01:35:08.984Z,0
2017-03-01T01:36:09.373Z,0
2017-03-01T01:37:09.443Z,0
2017-03-01T01:38:09.458Z,0
2017-03-01T01:39:09.485Z,0
2017-03-01T01:40:09.483Z,0
2017-03-01T01:41:09.524Z,0
2017-03-01T01:42:09.929Z,0
2017-03-01T01:43:09.590Z,0
2017-03-01T01:44:09.595Z,0
2017-03-01T01:45:09.216Z,0
2017-03-01T01:46:09.251Z,0
2017-03-01T01:47:09.689Z,0
2017-03-01T01:48:10.092Z,0
2017-03-01T01:49:08.935Z,0
2017-03-01T01:50:10.151Z,0
2017-03-01T01:51:09.392Z,0
2017-03-01T01:52:09.808Z,0
2017-03-01T01:53:09.833Z,0
2017-03-01T01:54:09.734Z,0
2017-03-01T01:55:09.503Z,0
2017-03-01T01:56:09.524Z,0
2017-03-01T01:57:09.545Z,0
2017-03-01T01:58:09.968Z,0
2017-03-01T01:59:09.878Z,0
2017-03-01T02:00:10.030Z,0
2017-03-01T02:01:10.439Z,0
2017-03-01T02:02:10.478Z,0
2017-03-01T02:03:09.713Z,0
2017-03-01T02:04:09.598Z,0
2017-03-01T02:05:10.559Z,0
2017-03-01T02:06:09.791Z,0
2017-03-01T02:07:09.808Z,0
2017-03-01T02:08:09.848Z,0
2017-03-01T02:09:10.106Z,0
2017-03-01T02:10:10.682Z,0
2017-03-01T02:11:10.311Z,0
2017-03-01T02:12:09.956Z,0
2017-03-01T02:13:09.964Z,0
2017-03-01T02:14:09.860Z,0
2017-03-01T02:15:10.021Z,0
2017-03-01T02:16:10.442Z,0
2017-03-01T02:17:10.475Z,0
2017-03-01T02:18:10.500Z,0
2017-03-01T02:19:11.185Z,0
2017-03-01T02:20:10.549Z,0
2017-03-01T02:21:10.974Z,0
2017-03-01T02:22:10.202Z,0
2017-03-01T02:23:10.246Z,0
2017-03-01T02:24:10.513Z,0
2017-03-01T02:25:10.284Z,0
2017-03-01T02:26:10.701Z,0
2017-03-01T02:27:10.742Z,0
2017-03-01T02:28:10.771Z,0
2017-03-01T02:29:11.456Z,0
2017-03-01T02:30:11.211Z,0
2017-03-01T02:31:11.251Z,0
2017-03-01T02:32:11.254Z,0
2017-03-01T02:33:11.305Z,0
2017-03-01T02:34:10.771Z,0
2017-03-01T02:35:10.952Z,0
2017-03-01T02:36:11.005Z,0
2017-03-01T02:37:11.001Z,0
2017-03-01T02:38:10.618Z,0
2017-03-01T02:39:11.307Z,0
2017-03-01T02:40:11.084Z,0
2017-03-01T02:41:11.112Z,0
2017-03-01T02:42:11.524Z,0
2017-03-01T02:43:10.378Z,0
2017-03-01T02:44:11.855Z,0
2017-03-01T02:45:11.199Z,0
2017-03-01T02:46:11.244Z,0
2017-03-01T02:47:10.869Z,0
2017-03-01T02:48:10.910Z,0
2017-03-01T02:49:11.966Z,0
2017-03-01T02:50:11.340Z,0
2017-03-01T02:51:11.764Z,0
2017-03-01T02:52:11.401Z,0
2017-03-01T02:53:11.812Z,0
2017-03-01T02:54:12.109Z,0
2017-03-01T02:55:11.887Z,0
2017-03-01T02:56:11.104Z,0
2017-03-01T02:57:11.512Z,0
2017-03-01T02:58:11.969Z,0
2017-03-01T02:59:11.437Z,0
2017-03-01T03:00:11.207Z,0
2017-03-01T03:01:12.036Z,0
2017-03-01T03:02:12.064Z,0
2017-03-01T03:03:11.693Z,0
2017-03-01T03:04:11.988Z,0
2017-03-01T03:05:12.134Z,0
2017-03-01T03:06:11.755Z,0
2017-03-01T03:07:11.833Z,0
2017-03-01T03:08:11.804Z,0
2017-03-01T03:09:11.447Z,0
2017-03-01T03:10:11.470Z,0
2017-03-01T03:11:12.291Z,0
2017-03-01T03:12:12.313Z,0
2017-03-01T03:13:11.962Z,0
2017-03-01T03:14:11.580Z,0
2017-03-01T03:15:12.417Z,0
2017-03-01T03:16:12.430Z,0
2017-03-01T03:17:12.083Z,0
2017-03-01T03:18:12.096Z,0
2017-03-01T03:19:11.719Z,0
2017-03-01T03:20:11.722Z,0
2017-03-01T03:21:12.582Z,0
2017-03-01T03:22:12.215Z,0
2017-03-01T03:23:12.628Z,0
2017-03-01T03:24:12.644Z,0
2017-03-01T03:25:11.885Z,0
2017-03-01T03:26:12.305Z,0
2017-03-01T03:27:11.918Z,0
2017-03-01T03:28:12.335Z,0
2017-03-01T03:29:12.372Z,0
2017-03-01T03:30:12.256Z,0
2017-03-01T03:31:12.033Z,0
2017-03-01T03:32:12.059Z,0
2017-03-01T03:33:12.875Z,0
2017-03-01T03:34:12.902Z,0
2017-03-01T03:35:13.196Z,0
2017-03-01T03:36:12.965Z,0
2017-03-01T03:37:12.182Z,0
2017-03-01T03:38:13.011Z,0
2017-03-01T03:39:12.647Z,0
2017-03-01T03:40:12.929Z,0
2017-03-01T03:41:12.305Z,0
2017-03-01T03:42:11.929Z,0
2017-03-01T03:43:13.141Z,0
2017-03-01T03:44:13.159Z,0
2017-03-01T03:45:13.042Z,0
2017-03-01T03:46:12.812Z,0
2017-03-01T03:47:12.849Z,0
2017-03-01T03:48:13.266Z,0
2017-03-01T03:49:12.490Z,0
2017-03-01T03:50:12.792Z,0
2017-03-01T03:51:12.164Z,0
2017-03-01T03:52:12.997Z,0
2017-03-01T03:53:13.398Z,0
2017-03-01T03:54:13.030Z,0
2017-03-01T03:55:13.323Z,0
2017-03-01T03:56:13.092Z,0
2017-03-01T03:57:13.100Z,0
2017-03-01T03:58:13.146Z,0
2017-03-01T03:59:12.796Z,0
2017-03-01T04:00:13.831Z,0
2017-03-01T04:01:12.816Z,0
2017-03-01T04:02:12.444Z,0
2017-03-01T04:03:12.897Z,0
2017-03-01T04:04:13.693Z,0
2017-03-01T04:05:13.170Z,0
2017-03-01T04:06:12.951Z,0
2017-03-01T04:07:13.376Z,0
2017-03-01T04:08:13.393Z,0
2017-03-01T04:09:13.045Z,0
2017-03-01T04:10:13.310Z,0
2017-03-01T04:11:13.475Z,0
2017-03-01T04:12:12.704Z,0
2017-03-01T04:13:13.924Z,0
2017-03-01T04:14:13.546Z,0
2017-03-01T04:15:13.518Z,0
2017-03-01T04:16:12.833Z,0
2017-03-01T04:17:13.636Z,0
2017-03-01T04:18:14.071Z,0
2017-03-01T04:19:14.105Z,0
2017-03-01T04:20:13.558Z,0
2017-03-01T04:21:13.338Z,0
2017-03-01T04:22:13.768Z,0
2017-03-01T04:23:13.784Z,0
2017-03-01T04:24:14.213Z,0
2017-03-01T04:25:14.102Z,0
2017-03-01T04:26:13.865Z,0
2017-03-01T04:27:13.499Z,0
2017-03-01T04:28:13.527Z,0
2017-03-01T04:29:13.560Z,0
2017-03-01T04:30:13.825Z,0
2017-03-01T04:31:14.018Z,0
2017-03-01T04:32:13.234Z,0
2017-03-01T04:33:13.655Z,0
2017-03-01T04:34:14.488Z,0
2017-03-01T04:35:14.785Z,0
2017-03-01T04:36:14.141Z,0
2017-03-01T04:37:13.362Z,0
2017-03-01T04:38:14.198Z,0
2017-03-01T04:39:13.859Z,0
2017-03-01T04:40:14.884Z,0
2017-03-01T04:41:14.281Z,0
2017-03-01T04:42:14.685Z,0
2017-03-01T04:43:14.326Z,0
2017-03-01T04:44:14.335Z,0
2017-03-01T04:45:15.016Z,0
2017-03-01T04:46:13.996Z,0
2017-03-01T04:47:14.813Z,0
2017-03-01T04:48:14.061Z,0
2017-03-01T04:49:14.090Z,0
2017-03-01T04:50:14.751Z,0
2017-03-01T04:51:14.136Z,0
2017-03-01T04:52:13.760Z,0
2017-03-01T04:53:14.176Z,0
2017-03-01T04:54:14.617Z,0
2017-03-01T04:55:15.298Z,0
2017-03-01T04:56:14.275Z,0
2017-03-01T04:57:15.076Z,0
2017-03-01T04:58:14.708Z,0
2017-03-01T04:59:15.128Z,0
2017-03-01T05:00:15.022Z,0
2017-03-01T05:01:14.801Z,0
2017-03-01T05:02:14.022Z,0
2017-03-01T05:03:14.836Z,0
2017-03-01T05:04:14.877Z,0
2017-03-01T05:05:15.166Z,0
2017-03-01T05:06:14.521Z,0
2017-03-01T05:07:14.563Z,0
2017-03-01T05:08:15.372Z,0
2017-03-01T05:09:15.000Z,0
2017-03-01T05:10:15.673Z,0
2017-03-01T05:11:15.453Z,0
2017-03-01T05:12:15.073Z,0
2017-03-01T05:13:15.116Z,0
2017-03-01T05:14:15.136Z,0
2017-03-01T05:15:15.809Z,0
2017-03-01T05:16:15.180Z,0
2017-03-01T05:17:14.430Z,0
2017-03-01T05:18:14.841Z,0
2017-03-01T05:19:15.268Z,0
2017-03-01T05:20:15.132Z,0
2017-03-01T05:21:15.316Z,0
2017-03-01T05:22:15.350Z,0
2017-03-01T05:23:15.367Z,0
2017-03-01T05:24:15.015Z,0
2017-03-01T05:25:15.676Z,0
2017-03-01T05:26:15.442Z,0
2017-03-01T05:27:15.090Z,0
2017-03-01T05:28:15.514Z,0
2017-03-01T05:29:15.131Z,0
2017-03-01T05:30:15.800Z,0
2017-03-01T05:31:15.976Z,0
2017-03-01T05:32:15.601Z,0
2017-03-01T05:33:15.244Z,0
2017-03-01T05:34:15.662Z,0
2017-03-01T05:35:16.327Z,0
2017-03-01T05:36:15.692Z,0
2017-03-01T05:37:15.332Z,0
2017-03-01T05:38:15.757Z,0
2017-03-01T05:39:15.799Z,0
2017-03-01T05:40:16.463Z,0
2017-03-01T05:41:16.228Z,0
2017-03-01T05:42:15.089Z,0
2017-03-01T05:43:15.485Z,0
2017-03-01T05:44:15.514Z,0
2017-03-01T05:45:16.602Z,0
2017-03-01T05:46:15.980Z,0
2017-03-01T05:47:15.997Z,0
2017-03-01T05:48:16.425Z,0
2017-03-01T05:49:16.442Z,0
2017-03-01T05:50:15.545Z,0
2017-03-01T05:51:16.522Z,0
2017-03-01T05:52:16.120Z,0
2017-03-01T05:53:15.793Z,0
2017-03-01T05:54:15.790Z,0
2017-03-01T05:55:16.450Z,0
2017-03-01T05:56:16.239Z,4
2017-03-01T05:57:16.656Z,4
2017-03-01T05:58:15.893Z,4
2017-03-01T05:59:16.317Z,4
2017-03-01T06:00:16.590Z,0
2017-03-01T06:01:15.959Z,0
2017-03-01T06:02:15.992Z,4
2017-03-01T06:03:16.028Z,4
2017-03-01T06:04:16.057Z,8
2017-03-01T06:05:16.737Z,8
2017-03-01T06:06:16.883Z,12
2017-03-01T06:07:16.534Z,12
2017-03-01T06:08:16.936Z,12
2017-03-01T06:09:16.977Z,12
2017-03-01T06:10:16.881Z,20
2017-03-01T06:11:16.226Z,20
2017-03-01T06:12:16.256Z,20
2017-03-01T06:13:17.080Z,20
2017-03-01T06:14:16.333Z,24
2017-03-01T06:15:16.988Z,20
2017-03-01T06:16:16.802Z,24
2017-03-01T06:17:16.399Z,24
2017-03-01T06:18:17.228Z,24
2017-03-01T06:19:16.837Z,36
2017-03-01T06:20:17.125Z,40
2017-03-01T06:21:16.909Z,48
2017-03-01T06:22:16.930Z,36
2017-03-01T06:23:16.976Z,56
2017-03-01T06:24:17.367Z,44
2017-03-01T06:25:17.248Z,52
2017-03-01T06:26:16.629Z,64
2017-03-01T06:27:16.650Z,72
2017-03-01T06:28:16.707Z,64
2017-03-01T06:29:17.496Z,76
2017-03-01T06:30:17.388Z,96
2017-03-01T06:31:16.370Z,92
2017-03-01T06:32:17.582Z,80
2017-03-01T06:33:17.631Z,84
2017-03-01T06:34:17.258Z,76
2017-03-01T06:35:17.132Z,112
2017-03-01T06:36:17.293Z,96
2017-03-01T06:37:17.330Z,108
2017-03-01T06:38:16.958Z,144
2017-03-01T06:39:17.375Z,112
2017-03-01T06:40:17.652Z,128
2017-03-01T06:41:17.433Z,172
2017-03-01T06:42:17.442Z,144
2017-03-01T06:43:17.883Z,168
2017-03-01T06:44:17.487Z,136
2017-03-01T06:45:17.539Z,152
2017-03-01T06:46:17.148Z,168
2017-03-01T06:47:17.204Z,232
2017-03-01T06:48:17.610Z,236
2017-03-01T06:49:17.639Z,268
2017-03-01T06:50:17.660Z,264
2017-03-01T06:51:17.287Z,264
2017-03-01T06:52:17.321Z,260
2017-03-01T06:53:17.370Z,268
2017-03-01T06:54:18.179Z,300
2017-03-01T06:55:17.804Z,272
2017-03-01T06:56:17.861Z,280
2017-03-01T06:57:17.882Z,284
2017-03-01T06:58:17.878Z,264
2017-03-01T06:59:17.511Z,268
2017-03-01T07:00:17.927Z,232
2017-03-01T07:01:18.352Z,192
2017-03-01T07:02:17.998Z,204
2017-03-01T07:03:17.618Z,196
2017-03-01T07:04:17.647Z,188
2017-03-01T07:05:18.064Z,244
2017-03-01T07:06:18.489Z,232
2017-03-01T07:07:17.773Z,236
2017-03-01T07:08:18.546Z,280
2017-03-01T07:09:18.163Z,232
2017-03-01T07:10:18.611Z,212
2017-03-01T07:11:18.224Z,216
2017-03-01T07:12:17.893Z,172
2017-03-01T07:13:18.277Z,160
2017-03-01T07:14:18.302Z,156
2017-03-01T07:15:18.333Z,172
2017-03-01T07:16:18.624Z,268
2017-03-01T07:17:17.616Z,364
2017-03-01T07:18:17.625Z,452
2017-03-01T07:19:18.439Z,436
2017-03-01T07:20:18.880Z,376
2017-03-01T07:21:18.740Z,364
2017-03-01T07:22:18.504Z,380
2017-03-01T07:23:18.548Z,396
2017-03-01T07:24:18.178Z,324
2017-03-01T07:25:18.597Z,428
2017-03-01T07:26:18.476Z,504
2017-03-01T07:27:18.648Z,572
2017-03-01T07:28:19.089Z,620
2017-03-01T07:29:18.702Z,528
2017-03-01T07:30:18.327Z,648
2017-03-01T07:31:19.015Z,768
2017-03-01T07:32:19.212Z,596
2017-03-01T07:33:18.809Z,416
2017-03-01T07:34:19.224Z,520
2017-03-01T07:35:18.878Z,596
2017-03-01T07:36:19.152Z,756
2017-03-01T07:37:18.915Z,596
2017-03-01T07:38:18.169Z,360
2017-03-01T07:39:18.978Z,252
2017-03-01T07:40:19.006Z,296
2017-03-01T07:41:18.879Z,388
2017-03-01T07:42:19.076Z,468
2017-03-01T07:43:18.720Z,784
2017-03-01T07:44:19.105Z,708
2017-03-01T07:45:19.134Z,828
2017-03-01T07:46:19.415Z,712
2017-03-01T07:47:19.183Z,552
2017-03-01T07:48:19.223Z,928
2017-03-01T07:49:19.637Z,1216
2017-03-01T07:50:19.282Z,828
2017-03-01T07:51:21.055Z,600
2017-03-01T07:52:18.935Z,436
2017-03-01T07:53:18.960Z,572
2017-03-01T07:54:19.365Z,320
2017-03-01T07:55:18.614Z,404
2017-03-01T07:56:19.270Z,384
2017-03-01T07:57:19.475Z,360
2017-03-01T07:58:19.479Z,548
2017-03-01T07:59:19.909Z,640
2017-03-01T08:00:19.149Z,540
2017-03-01T08:01:19.826Z,620
2017-03-01T08:02:19.614Z,660
2017-03-01T08:03:19.206Z,760
2017-03-01T08:04:19.268Z,904
2017-03-01T08:05:20.071Z,1012
2017-03-01T08:06:20.341Z,896
2017-03-01T08:07:19.335Z,1020
2017-03-01T08:08:19.759Z,916
2017-03-01T08:09:20.165Z,1024
2017-03-01T08:10:20.225Z,832
2017-03-01T08:11:20.101Z,856
2017-03-01T08:12:19.855Z,568
2017-03-01T08:13:19.483Z,512
2017-03-01T08:14:19.513Z,696
2017-03-01T08:15:19.947Z,832
2017-03-01T08:16:20.228Z,1028
2017-03-01T08:17:19.994Z,908
2017-03-01T08:18:19.631Z,952
2017-03-01T08:19:20.452Z,680
2017-03-01T08:20:19.681Z,612
2017-03-01T08:21:20.744Z,884
2017-03-01T08:22:20.130Z,1276
2017-03-01T08:23:19.757Z,1168
2017-03-01T08:24:20.175Z,1124
2017-03-01T08:25:19.808Z,1292
2017-03-01T08:26:19.433Z,1456
2017-03-01T08:27:19.854Z,1604
2017-03-01T08:28:19.902Z,1164
2017-03-01T08:29:20.702Z,808
2017-03-01T08:30:20.355Z,984
2017-03-01T08:31:20.770Z,740
2017-03-01T08:32:20.442Z,1036
2017-03-01T08:33:20.062Z,1120
2017-03-01T08:34:20.438Z,1312
2017-03-01T08:35:20.467Z,1052
2017-03-01T08:36:20.152Z,868
2017-03-01T08:37:20.392Z,748
2017-03-01T08:38:20.562Z,712
2017-03-01T08:39:20.583Z,660
2017-03-01T08:40:20.618Z,840
2017-03-01T08:41:20.248Z,964
2017-03-01T08:42:20.917Z,828
2017-03-01T08:43:21.090Z,788
2017-03-01T08:44:21.140Z,1084
2017-03-01T08:45:19.951Z,1608
2017-03-01T08:46:20.783Z,1768
2017-03-01T08:47:21.440Z,1864
2017-03-01T08:48:21.213Z,1684
2017-03-01T08:49:20.466Z,1408
2017-03-01T08:50:20.887Z,1572
2017-03-01T08:51:20.536Z,1680
2017-03-01T08:52:21.185Z,1448
2017-03-01T08:53:21.349Z,1344
2017-03-01T08:54:21.383Z,996
2017-03-01T08:55:21.007Z,1040
2017-03-01T08:56:21.439Z,888
2017-03-01T08:57:21.315Z,684
2017-03-01T08:58:20.699Z,796
2017-03-01T08:59:21.126Z,808
2017-03-01T09:00:20.742Z,896
2017-03-01T09:01:20.371Z,884
2017-03-01T09:02:21.060Z,828
2017-03-01T09:03:21.228Z,904
2017-03-01T09:04:21.661Z,868
2017-03-01T09:05:21.291Z,1020
2017-03-01T09:06:21.315Z,1556
2017-03-01T09:07:21.588Z,1204
2017-03-01T09:08:20.973Z,1264
2017-03-01T09:09:20.997Z,884
2017-03-01T09:10:21.427Z,1316
2017-03-01T09:11:21.450Z,2224
2017-03-01T09:12:22.124Z,2044
2017-03-01T09:13:20.712Z,1252
2017-03-01T09:14:21.177Z,1708
2017-03-01T09:15:21.169Z,1736
2017-03-01T09:16:21.971Z,1224
2017-03-01T09:17:21.855Z,1108
2017-03-01T09:18:21.244Z,832
2017-03-01T09:19:20.916Z,1144
2017-03-01T09:20:22.093Z,1076
2017-03-01T09:21:21.314Z,1268
2017-03-01T09:22:21.991Z,1256
2017-03-01T09:23:20.992Z,1100
2017-03-01T09:24:21.417Z,864
2017-03-01T09:25:21.442Z,1040
2017-03-01T09:26:21.849Z,948
2017-03-01T09:27:21.333Z,828
2017-03-01T09:28:21.907Z,804
2017-03-01T09:29:21.528Z,1224
2017-03-01T09:30:22.344Z,1228
2017-03-01T09:31:21.598Z,892
2017-03-01T09:32:22.647Z,948
2017-03-01T09:33:22.058Z,948
2017-03-01T09:34:22.064Z,1688
2017-03-01T09:35:22.079Z,2844
2017-03-01T09:36:22.518Z,3232
2017-03-01T09:37:22.398Z,3104
2017-03-01T09:38:22.171Z,2864
2017-03-01T09:39:21.404Z,2340
2017-03-01T09:40:22.620Z,2512
2017-03-01T09:41:22.244Z,1928
2017-03-01T09:42:22.526Z,1956
2017-03-01T09:43:22.719Z,2052
2017-03-01T09:44:22.318Z,1124
2017-03-01T09:45:22.358Z,1332
2017-03-01T09:46:22.768Z,1412
2017-03-01T09:47:22.677Z,712
2017-03-01T09:48:22.425Z,1304
2017-03-01T09:49:22.861Z,1380
2017-03-01T09:50:22.087Z,856
2017-03-01T09:51:22.935Z,880
2017-03-01T09:52:22.789Z,964
2017-03-01T09:53:22.165Z,1212
2017-03-01T09:54:22.997Z,916
2017-03-01T09:55:21.851Z,864
2017-03-01T09:56:22.248Z,748
2017-03-01T09:57:23.317Z,792
2017-03-01T09:58:22.693Z,852
2017-03-01T09:59:23.145Z,716
2017-03-01T10:00:22.369Z,744
2017-03-01T10:01:22.799Z,568
2017-03-01T10:02:23.072Z,632
2017-03-01T10:03:22.829Z,748
2017-03-01T10:04:22.864Z,848
2017-03-01T10:05:22.501Z,1124
2017-03-01T10:06:22.910Z,1112
2017-03-01T10:07:23.599Z,712
2017-03-01T10:08:23.377Z,720
2017-03-01T10:09:23.013Z,628
2017-03-01T10:10:22.617Z,744
2017-03-01T10:11:23.075Z,920
2017-03-01T10:12:22.939Z,1184
2017-03-01T10:13:22.719Z,1184
2017-03-01T10:14:22.740Z,1204
2017-03-01T10:15:22.378Z,1756
2017-03-01T10:16:22.791Z,1620
2017-03-01T10:17:23.503Z,1252
2017-03-01T10:18:23.636Z,1376
2017-03-01T10:19:23.693Z,1152
2017-03-01T10:20:23.296Z,1076
2017-03-01T10:21:23.713Z,1208
2017-03-01T10:22:24.003Z,1596
2017-03-01T10:23:23.388Z,1480
2017-03-01T10:24:23.057Z,1512
2017-03-01T10:25:23.425Z,1296
2017-03-01T10:26:23.089Z,2112
2017-03-01T10:27:23.479Z,1224
2017-03-01T10:28:23.502Z,1568
2017-03-01T10:29:23.936Z,2012
2017-03-01T10:30:23.963Z,2432
2017-03-01T10:31:23.202Z,2528
2017-03-01T10:32:23.214Z,2424
2017-03-01T10:33:23.899Z,3020
2017-03-01T10:34:23.707Z,3180
2017-03-01T10:35:24.086Z,3120
2017-03-01T10:36:23.324Z,3152
2017-03-01T10:37:23.754Z,3240
2017-03-01T10:38:24.427Z,3492
2017-03-01T10:39:23.803Z,2812
2017-03-01T10:40:23.831Z,2312
2017-03-01T10:41:23.081Z,2152
2017-03-01T10:42:23.504Z,2608
2017-03-01T10:43:24.142Z,2680
2017-03-01T10:44:23.551Z,2904
2017-03-01T10:45:24.372Z,3608
2017-03-01T10:46:23.985Z,3836
2017-03-01T10:47:23.612Z,3192
2017-03-01T10:48:23.894Z,2304
2017-03-01T10:49:23.675Z,2284
2017-03-01T10:50:24.491Z,1292
2017-03-01T10:51:23.736Z,1212
2017-03-01T10:52:24.144Z,1324
2017-03-01T10:53:24.435Z,1628
2017-03-01T10:54:23.802Z,1804
2017-03-01T10:55:24.243Z,2432
2017-03-01T10:56:23.875Z,2412
2017-03-01T10:57:24.293Z,1712
2017-03-01T10:58:24.961Z,1464
2017-03-01T10:59:24.734Z,1532
2017-03-01T11:00:24.771Z,1860
2017-03-01T11:01:24.383Z,1976
2017-03-01T11:02:24.029Z,1940
2017-03-01T11:03:23.895Z,1620
2017-03-01T11:04:24.477Z,1468
2017-03-01T11:05:24.894Z,1680
2017-03-01T11:06:24.143Z,1472
2017-03-01T11:07:24.559Z,1700
2017-03-01T11:08:24.827Z,2044
2017-03-01T11:09:24.613Z,2484
2017-03-01T11:10:24.620Z,3708
2017-03-01T11:11:24.261Z,3636
2017-03-01T11:12:24.687Z,3748
2017-03-01T11:13:24.319Z,3712
2017-03-01T11:14:24.335Z,3888
2017-03-01T11:15:24.373Z,4204
2017-03-01T11:16:24.397Z,4084
2017-03-01T11:17:24.833Z,3916
2017-03-01T11:18:24.855Z,3964
2017-03-01T11:19:25.268Z,4036
2017-03-01T11:20:25.312Z,3740
2017-03-01T11:21:24.935Z,3368
2017-03-01T11:22:24.546Z,2860
2017-03-01T11:23:24.195Z,2576
2017-03-01T11:24:24.611Z,2692
2017-03-01T11:25:25.430Z,3052
2017-03-01T11:26:24.665Z,3068
2017-03-01T11:27:25.074Z,2896
2017-03-01T11:28:24.754Z,3188
2017-03-01T11:29:25.535Z,3424
2017-03-01T11:30:24.771Z,3500
2017-03-01T11:31:25.204Z,4036
2017-03-01T11:32:25.229Z,4172
2017-03-01T11:33:24.854Z,4232
2017-03-01T11:34:24.871Z,4776
2017-03-01T11:35:25.304Z,5536
2017-03-01T11:36:24.936Z,5988
2017-03-01T11:37:25.765Z,6524
2017-03-01T11:38:25.773Z,6948
2017-03-01T11:39:25.802Z,5260
2017-03-01T11:40:25.848Z,4128
2017-03-01T11:41:25.067Z,4292
2017-03-01T11:42:25.500Z,4060
2017-03-01T11:43:25.116Z,3988
2017-03-01T11:44:25.792Z,4548
2017-03-01T11:45:25.970Z,4152
2017-03-01T11:46:24.819Z,4616
2017-03-01T11:47:26.015Z,5564
2017-03-01T11:48:25.655Z,5608
2017-03-01T11:49:25.951Z,6112
2017-03-01T11:50:26.102Z,7120
2017-03-01T11:51:25.726Z,6996
2017-03-01T11:52:24.966Z,6944
2017-03-01T11:53:25.799Z,7308
2017-03-01T11:54:26.464Z,6772
2017-03-01T11:55:25.436Z,6640
2017-03-01T11:56:26.270Z,6552
2017-03-01T11:57:25.895Z,6772
2017-03-01T11:58:25.523Z,6560
2017-03-01T11:59:26.200Z,6000
2017-03-01T12:00:26.369Z,5188
2017-03-01T12:01:26.410Z,4000
2017-03-01T12:02:26.425Z,3424
2017-03-01T12:03:25.662Z,3652
2017-03-01T12:04:26.350Z,4252
2017-03-01T12:05:26.129Z,4608
2017-03-01T12:06:26.145Z,4140
2017-03-01T12:07:25.770Z,3644
2017-03-01T12:08:26.611Z,3972
2017-03-01T12:09:26.504Z,4072
2017-03-01T12:10:26.651Z,3628
2017-03-01T12:11:26.281Z,3548
2017-03-01T12:12:26.312Z,2712
2017-03-01T12:13:25.930Z,2172
2017-03-01T12:14:26.617Z,2772
2017-03-01T12:15:26.001Z,2504
2017-03-01T12:16:26.413Z,3388
2017-03-01T12:17:26.446Z,3336
2017-03-01T12:18:26.465Z,2944
2017-03-01T12:19:26.337Z,3908
2017-03-01T12:20:26.915Z,3848
2017-03-01T12:21:26.163Z,3916
2017-03-01T12:22:26.172Z,3404
2017-03-01T12:23:26.593Z,3468
2017-03-01T12:24:26.886Z,3924
2017-03-01T12:25:25.889Z,3624
2017-03-01T12:26:26.687Z,3348
2017-03-01T12:27:27.105Z,3536
2017-03-01T12:28:26.729Z,2968
2017-03-01T12:29:27.009Z,2512
2017-03-01T12:30:27.179Z,2516
2017-03-01T12:31:27.231Z,2532
2017-03-01T12:32:26.855Z,2872
2017-03-01T12:33:26.872Z,3452
2017-03-01T12:34:26.745Z,3164
2017-03-01T12:35:26.925Z,3132
2017-03-01T12:36:26.962Z,3224
2017-03-01T12:37:27.383Z,2892
2017-03-01T12:38:26.606Z,2492
2017-03-01T12:39:27.289Z,2264
2017-03-01T12:40:27.466Z,2672
2017-03-01T12:41:27.498Z,2708
2017-03-01T12:42:26.323Z,2684
2017-03-01T12:43:27.559Z,3220
2017-03-01T12:44:27.459Z,3328
2017-03-01T12:45:27.193Z,3864
2017-03-01T12:46:27.634Z,3828
2017-03-01T12:47:27.247Z,3524
2017-03-01T12:48:27.302Z,3396
2017-03-01T12:49:27.952Z,3128
2017-03-01T12:50:27.741Z,2868
2017-03-01T12:51:27.766Z,3292
2017-03-01T12:52:27.814Z,3696
2017-03-01T12:53:27.433Z,3800
2017-03-01T12:54:27.696Z,4008
2017-03-01T12:55:27.457Z,3984
2017-03-01T12:56:27.498Z,3604
2017-03-01T12:57:27.951Z,3108
2017-03-01T12:58:27.559Z,2400
2017-03-01T12:59:27.836Z,2340
2017-03-01T13:00:28.001Z,2776
2017-03-01T13:01:27.629Z,2968
2017-03-01T13:02:27.666Z,2872
2017-03-01T13:03:28.087Z,2632
2017-03-01T13:04:27.563Z,2448
2017-03-01T13:05:27.344Z,2236
2017-03-01T13:06:27.380Z,2360
2017-03-01T13:07:27.394Z,2340
2017-03-01T13:08:27.826Z,2416
2017-03-01T13:09:27.708Z,2492
2017-03-01T13:10:27.879Z,2552
2017-03-01T13:11:27.101Z,2576
2017-03-01T13:12:28.341Z,2668
2017-03-01T13:13:27.946Z,2652
2017-03-01T13:14:28.249Z,2168
2017-03-01T13:15:27.219Z,1724
2017-03-01T13:16:28.440Z,1560
2017-03-01T13:17:28.072Z,1952
2017-03-01T13:18:28.506Z,1984
2017-03-01T13:19:27.983Z,2136
2017-03-01T13:20:28.139Z,2164
2017-03-01T13:21:28.158Z,1980
2017-03-01T13:22:28.604Z,2132
2017-03-01T13:23:27.861Z,2448
2017-03-01T13:24:28.113Z,2488
2017-03-01T13:25:27.883Z,2448
2017-03-01T13:26:27.506Z,2376
2017-03-01T13:27:27.942Z,2288
2017-03-01T13:28:28.373Z,2208
2017-03-01T13:29:28.649Z,2228
2017-03-01T13:30:28.789Z,2224
2017-03-01T13:31:28.442Z,2208
2017-03-01T13:32:28.863Z,2180
2017-03-01T13:33:28.108Z,2172
2017-03-01T13:34:28.760Z,2136
2017-03-01T13:35:28.166Z,2096
2017-03-01T13:36:28.567Z,2048
2017-03-01T13:37:28.594Z,2016
2017-03-01T13:38:28.223Z,2032
2017-03-01T13:39:29.300Z,1896
2017-03-01T13:40:28.708Z,1908
2017-03-01T13:41:28.702Z,1808
2017-03-01T13:42:27.946Z,1644
2017-03-01T13:43:29.163Z,1340
2017-03-01T13:44:29.047Z,1220
2017-03-01T13:45:28.825Z,1100
2017-03-01T13:46:28.450Z,1004
2017-03-01T13:47:28.873Z,1080
2017-03-01T13:48:28.896Z,1192
2017-03-01T13:49:29.585Z,1160
2017-03-01T13:50:28.569Z,1508
2017-03-01T13:51:28.605Z,1792
2017-03-01T13:52:29.010Z,1872
2017-03-01T13:53:29.050Z,1828
2017-03-01T13:54:29.309Z,1744
2017-03-01T13:55:29.485Z,1628
2017-03-01T13:56:28.713Z,1424
2017-03-01T13:57:29.142Z,1336
2017-03-01T13:58:29.570Z,1268
2017-03-01T13:59:29.859Z,1184
2017-03-01T14:00:29.239Z,972
2017-03-01T14:01:29.253Z,992
2017-03-01T14:02:29.285Z,1304